Flight Track Log - Related Links

Times and Time Zones

All times are in EST time to prevent confusion due to time zone crossing. See the N111KC flight status page for this flight to view local times or setup timezone preferences in your user account.


Time Position Orientation Groundspeed Altitude Reporting Facility
EST Latitude Longitude Course Direction KTS MPH feet Rate Location/Type
Mon 08:11:24 AM 28.5500 -81.3167 41° Northeast 103 119 600  Level Orlando TRACON
Mon 08:12:18 AM 28.5833 -81.2833 41° Northeast 138 159 1,500 429 Climbing Orlando TRACON
Mon 08:13:30 AM 28.6333 -81.2667 16° North 213 245 1,500 87 Level Orlando TRACON
Mon 08:14:36 AM 28.7000 -81.2667 360° North 213 245 1,700 476 Climbing Orlando TRACON
Mon 08:15:36 AM 28.7000 -81.3167 270° West 170 196 2,500 1,095 Climbing Orlando TRACON
Mon 08:16:42 AM 28.6833 -81.3667 249° West 146 168 4,000 1,211 Climbing Orlando TRACON
Mon 08:17:30 AM 28.6833 -81.4000 270° West 141 162 4,800 1,167 Climbing Orlando TRACON
Mon 08:18:30 AM 28.6667 -81.4500 249° West 123 142 6,100 1,200 Climbing Orlando TRACON
Mon 08:19:30 AM 28.6667 -81.4833 270° West 145 167 7,200 1,200 Climbing Orlando TRACON
Mon 08:20:30 AM 28.6667 -81.5333 270° West 140 161 8,500 1,200 Climbing Orlando TRACON
Mon 08:22:45 AM 28.6758 -81.6314 276° West 146 168 11,100 1,169 Climbing Jacksonville Center
Mon 08:23:45 AM 28.6783 -81.6764 274° West 141 162 12,300 1,100 Climbing Jacksonville Center
Mon 08:24:45 AM 28.6831 -81.7236 277° West 141 162 13,300 1,000 Climbing Jacksonville Center
Mon 08:25:45 AM 28.6833 -81.7708 270° West 146 168 14,300 1,050 Climbing Jacksonville Center
Mon 08:26:45 AM 28.6900 -81.8181 279° West 146 168 15,400 950 Climbing Jacksonville Center
Mon 08:27:45 AM 28.6925 -81.8703 273° West 152 175 16,200 800 Climbing Jacksonville Center
Mon 08:28:45 AM 28.6972 -81.9197 276° West 158 182 17,000 850 Climbing Jacksonville Center
Mon 08:29:45 AM 28.6975 -81.9719 270° West 158 182 17,900 700 Climbing Jacksonville Center
Mon 08:30:45 AM 28.7000 -82.0239 273° West 158 182 18,400 600 Climbing Jacksonville Center
Mon 08:31:45 AM 28.7025 -82.0736 273° West 158 182 19,100 700 Climbing Jacksonville Center
Mon 08:32:45 AM 28.7047 -82.1256 273° West 158 182 19,800 400 Climbing Jacksonville Center
Mon 08:33:45 AM 28.7094 -82.1800 276° West 164 189 19,900 50 Climbing Jacksonville Center
Mon 08:34:45 AM 28.7389 -82.2344 302° West 176 203 19,900  Level Jacksonville Center
Mon 08:35:45 AM 28.7808 -82.2861 313° West 208 239 19,900  Level Jacksonville Center
Mon 08:36:45 AM 28.8167 -82.3406 307° West 215 247 19,900  Level Jacksonville Center
Mon 08:37:45 AM 28.8544 -82.3900 311° West 215 247 19,900 50 Level Jacksonville Center
Mon 08:38:45 AM 28.8881 -82.4467 304° West 215 247 20,000  Climbing Jacksonville Center
Mon 08:39:45 AM 28.9236 -82.5011 307° West 215 247 19,900 -50 Descending Jacksonville Center
Mon 08:40:45 AM 28.9592 -82.5556 307° West 215 247 19,900  Level Jacksonville Center
Mon 08:41:45 AM 28.9947 -82.6100 307° West 215 247 19,900 50 Level Jacksonville Center
Mon 08:42:45 AM 29.0283 -82.6644 305° West 215 247 20,000 50 Climbing Jacksonville Center
Mon 08:43:45 AM 29.0639 -82.7167 308° West 215 247 20,000  Level Jacksonville Center
Mon 08:44:45 AM 29.1017 -82.7714 308° West 215 247 20,000  Level Jacksonville Center
Mon 08:45:45 AM 29.1350 -82.8261 305° West 215 247 20,000  Level Jacksonville Center
Mon 08:46:45 AM 29.1706 -82.8806 307° West 215 247 20,000  Level Jacksonville Center
Mon 08:47:45 AM 29.2058 -82.9353 306° West 215 247 20,000  Level Jacksonville Center
Mon 08:48:45 AM 29.2394 -82.9900 305° West 215 247 20,000  Level Jacksonville Center
Mon 08:49:45 AM 29.2769 -83.0425 309° West 215 247 20,000 -50 Level Jacksonville Center
Mon 08:50:45 AM 29.3039 -83.0878 304° West 215 247 19,900  Descending Jacksonville Center
Mon 08:51:45 AM 29.3436 -83.1475 307° West 215 247 20,000  Climbing Jacksonville Center
Mon 08:52:45 AM 29.3789 -83.2047 305° West 215 247 19,900 -50 Descending Jacksonville Center
Mon 08:53:45 AM 29.4164 -83.2597 308° West 215 247 19,900 50 Level Jacksonville Center
Mon 08:54:45 AM 29.4475 -83.3147 303° West 215 247 20,000  Climbing Jacksonville Center
Mon 08:55:45 AM 29.4681 -83.3767 291° West 209 241 19,900 -50 Descending Jacksonville Center
Mon 08:56:45 AM 29.4886 -83.4389 291° West 209 241 19,900  Level Jacksonville Center
Mon 08:57:45 AM 29.5136 -83.4986 296° West 214 246 19,900  Level Jacksonville Center
Mon 08:58:45 AM 29.5361 -83.5633 292° West 214 246 19,900  Level Jacksonville Center
Mon 08:59:45 AM 29.5589 -83.6208 294° West 214 246 19,900 -100 Level Jacksonville Center
Mon 09:00:45 AM 29.5814 -83.6831 293° West 214 246 19,700 -650 Descending Jacksonville Center
Mon 09:01:45 AM 29.6103 -83.7525 296° West 219 252 18,600 -950 Descending Jacksonville Center
Mon 09:02:45 AM 29.6389 -83.8222 295° West 231 266 17,800 -700 Descending Jacksonville Center
Mon 09:03:45 AM 29.6675 -83.8964 294° West 241 277 17,200 -750 Descending Jacksonville Center
Mon 09:04:45 AM 29.6942 -83.9708 292° West 247 284 16,300 -800 Descending Jacksonville Center
Mon 09:05:45 AM 29.7228 -84.0453 294° West 253 291 15,600 -650 Descending Jacksonville Center
Mon 09:06:45 AM 29.7492 -84.1150 294° West 253 291 15,000 -600 Descending Jacksonville Center
Mon 09:07:45 AM 29.7736 -84.1872 291° West 253 291 14,400 -600 Descending Jacksonville Center
Mon 09:08:45 AM 29.8019 -84.2569 295° West 253 291 13,800 -550 Descending Jacksonville Center
Mon 09:09:45 AM 29.8222 -84.3289 288° West 248 285 13,300 -650 Descending Jacksonville Center
Mon 09:10:45 AM 29.8483 -84.3989 293° West 243 280 12,500 -850 Descending Jacksonville Center
Mon 09:11:45 AM 29.8747 -84.4686 294° West 243 280 11,600 -1,000 Descending Jacksonville Center
Mon 09:12:45 AM 29.9011 -84.5386 294° West 243 280 10,500 -850 Descending Jacksonville Center
Mon 09:13:45 AM 29.9250 -84.6086 292° West 237 273 9,900 -300 Descending Jacksonville Center
Mon 09:14:45 AM 29.9494 -84.6711 294° West 226 260 9,900  Level Jacksonville Center
Mon 09:15:45 AM 29.9672 -84.7314 289° West 214 246 9,900  Level Jacksonville Center
Mon 09:17:00 AM 29.9942 -84.8016 294° West  Level FlightAware Approximate
Mon 09:24:00 AM 30.1449 -85.1956 293° West  Level FlightAware Approximate
Mon 09:25:00 AM 30.1653 -85.2525 292° West  Level FlightAware Approximate
Mon 09:26:00 AM 30.1856 -85.3095 292° West  Level FlightAware Approximate
Mon 09:27:00 AM 30.2051 -85.3668 289° West  Level FlightAware Approximate
Mon 09:28:00 AM 30.2225 -85.4250 289° West  Level FlightAware Approximate
Mon 09:29:00 AM 30.2400 -85.4833 289° West  Level FlightAware Approximate
Mon 09:30:00 AM 30.2582 -85.5412 291° West  Level FlightAware Approximate
Mon 09:31:00 AM 30.2774 -85.5988 291° West  Level FlightAware Approximate
Mon 09:32:00 AM 30.2988 -85.6552 295° West  Level FlightAware Approximate
Mon 09:33:00 AM 30.3211 -85.7112 295° West  Level FlightAware Approximate
Mon 09:34:00 AM 30.3435 -85.7672 295° West  Level FlightAware Approximate
Mon 09:35:00 AM 30.3500 -85.7833 295° West  Level FlightAware Approximate
Mon 09:36:00 AM 30.3582 -85.7956 295° West  Level Estimated
Mon 09:37:00 AM 30.3582 -85.7956 295° West  Level Estimated
Mon 09:38:00 AM 30.3582 -85.7956 295° West  Level Estimated

Login

Don't have an account? Register now (free) for customized features, flight alerts, and more!